createdAt,value
2023-05-21T00:00:29.163Z,100755.94
2023-05-21T00:02:59.669Z,100745.91
2023-05-21T00:05:27.947Z,100750.31
2023-05-21T00:07:56.917Z,100753.75
2023-05-21T00:10:24.977Z,100751.66
2023-05-21T00:12:53.240Z,100751.66
2023-05-21T00:15:21.388Z,100746.72
2023-05-21T00:18:17.160Z,100740.41
2023-05-21T00:20:46.156Z,100758.28
2023-05-21T00:23:14.329Z,100743.97
2023-05-21T00:25:42.412Z,100747.06
2023-05-21T00:28:10.652Z,100744.50
2023-05-21T00:30:40.243Z,100747.22
2023-05-21T00:33:10.916Z,100731.53
2023-05-21T00:35:40.026Z,100735.09
2023-05-21T00:38:09.075Z,100734.63
2023-05-21T00:40:37.249Z,100744.66
2023-05-21T00:43:05.376Z,100738.00
2023-05-21T00:45:33.641Z,100728.31
2023-05-21T00:48:04.965Z,100741.44
2023-05-21T00:50:33.863Z,100738.72
2023-05-21T00:53:03.596Z,100735.16
2023-05-21T00:55:31.722Z,100725.94
2023-05-21T00:58:00.079Z,100724.59
2023-05-21T01:00:28.799Z,100725.28
2023-05-21T01:02:59.760Z,100718.97
2023-05-21T01:05:29.542Z,100721.50
2023-05-21T01:07:58.511Z,100723.53
2023-05-21T01:10:27.224Z,100720.50
2023-05-21T01:12:57.821Z,100719.28
2023-05-21T01:15:26.529Z,100717.41
2023-05-21T01:17:56.174Z,100711.22
2023-05-21T01:20:25.204Z,100714.84
2023-05-21T01:22:57.464Z,100716.34
2023-05-21T01:25:25.562Z,100724.84
2023-05-21T01:27:53.927Z,100713.09
2023-05-21T01:30:24.173Z,100710.16
2023-05-21T01:33:19.120Z,100726.88
2023-05-21T01:35:55.315Z,100717.66
2023-05-21T01:38:29.071Z,100711.78
2023-05-21T01:41:04.131Z,100715.41
2023-05-21T01:43:36.994Z,100716.72
2023-05-21T01:46:10.247Z,100718.75
2023-05-21T01:48:39.323Z,100715.50
2023-05-21T01:51:08.138Z,100721.78
2023-05-21T01:53:39.589Z,100719.25
2023-05-21T01:56:08.590Z,100716.34
2023-05-21T01:58:38.883Z,100711.94
2023-05-21T02:01:07.106Z,100709.03
2023-05-21T02:03:35.609Z,100715.31
2023-05-21T02:06:03.913Z,100721.31
2023-05-21T02:08:32.008Z,100717.81
2023-05-21T02:11:00.093Z,100719.50
2023-05-21T02:13:29.674Z,100717.66
2023-05-21T02:15:58.539Z,100715.81
2023-05-21T02:18:29.706Z,100720.97
2023-05-21T02:20:58.034Z,100721.63
2023-05-21T02:23:26.157Z,100724.06
2023-05-21T02:25:54.158Z,100713.03
2023-05-21T02:28:22.417Z,100724.09
2023-05-21T02:30:50.525Z,100727.03
2023-05-21T02:33:20.593Z,100726.16
2023-05-21T02:35:49.415Z,100727.06
2023-05-21T02:38:19.959Z,100728.75
2023-05-21T02:40:48.749Z,100736.75
2023-05-21T02:43:17.604Z,100743.59
2023-05-21T02:45:46.555Z,100751.25
2023-05-21T02:48:14.932Z,100737.97
2023-05-21T02:50:43.386Z,100747.16
2023-05-21T02:53:11.799Z,100744.97
2023-05-21T02:55:39.971Z,100733.88
2023-05-21T02:58:08.295Z,100740.53
2023-05-21T03:00:36.558Z,100766.41
2023-05-21T03:03:05.369Z,100753.06
2023-05-21T03:05:33.636Z,100745.75
2023-05-21T03:08:02.181Z,100739.16
2023-05-21T03:10:30.879Z,100747.88
2023-05-21T03:13:01.805Z,100745.78
2023-05-21T03:15:34.248Z,100766.72
2023-05-21T03:18:03.431Z,100743.22
2023-05-21T03:20:32.522Z,100754.81
2023-05-21T03:23:00.975Z,100751.94
2023-05-21T03:25:29.169Z,100745.28
2023-05-21T03:27:57.510Z,100741.22
2023-05-21T03:30:25.493Z,100740.88
2023-05-21T03:32:53.839Z,100743.94
2023-05-21T03:35:21.918Z,100740.59
2023-05-21T03:37:50.347Z,100742.47
2023-05-21T03:40:29.444Z,100748.63
2023-05-21T03:42:58.217Z,100753.06
2023-05-21T03:45:26.726Z,100734.94
2023-05-21T03:47:55.316Z,100735.34
2023-05-21T03:50:23.457Z,100736.63
2023-05-21T03:52:51.958Z,100745.28
2023-05-21T03:55:22.347Z,100748.50
2023-05-21T03:57:50.285Z,100753.56
2023-05-21T04:00:18.607Z,100749.25
2023-05-21T04:02:47.294Z,100740.16
2023-05-21T04:05:15.508Z,100742.91
2023-05-21T04:07:47.106Z,100748.19
2023-05-21T04:10:15.886Z,100734.59
2023-05-21T04:12:43.923Z,100747.75
2023-05-21T04:15:12.866Z,100749.34
2023-05-21T04:17:41.989Z,100756.88
2023-05-21T04:20:12.466Z,100751.09
2023-05-21T04:22:44.335Z,100756.69
2023-05-21T04:25:13.090Z,100752.53
2023-05-21T04:27:43.034Z,100757.75
2023-05-21T04:30:11.495Z,100775.75
2023-05-21T04:32:42.028Z,100767.31
2023-05-21T04:35:13.321Z,100781.38
2023-05-21T04:37:42.496Z,100776.97
2023-05-21T04:40:10.985Z,100769.09
2023-05-21T04:42:39.532Z,100772.22
2023-05-21T04:45:09.494Z,100781.03
2023-05-21T04:47:38.686Z,100770.84
2023-05-21T04:50:07.366Z,100771.94
2023-05-21T04:52:36.051Z,100767.28
2023-05-21T04:55:04.595Z,100758.63
2023-05-21T04:57:33.253Z,100752.44
2023-05-21T05:00:01.687Z,100772.00
2023-05-21T05:02:30.768Z,100756.63
2023-05-21T05:05:00.219Z,100757.28
2023-05-21T05:07:28.605Z,100759.56
2023-05-21T05:09:56.831Z,100768.88
2023-05-21T05:12:25.586Z,100770.84
2023-05-21T05:14:53.982Z,100791.84
2023-05-21T05:17:22.376Z,100775.56
2023-05-21T05:19:50.745Z,100768.56
2023-05-21T05:22:18.854Z,100773.47
2023-05-21T05:24:47.712Z,100777.25
2023-05-21T05:27:16.402Z,100764.13
2023-05-21T05:29:45.901Z,100763.81
2023-05-21T05:35:03.119Z,100769.22
2023-05-21T05:37:34.614Z,100779.81
2023-05-21T05:40:03.259Z,100784.44
2023-05-21T05:42:32.233Z,100784.81
2023-05-21T05:45:00.541Z,100785.25
2023-05-21T05:47:29.153Z,100777.94
2023-05-21T05:49:57.411Z,100783.91
2023-05-21T05:52:25.604Z,100771.47
2023-05-21T05:54:53.905Z,100772.16
2023-05-21T05:57:22.418Z,100777.09
2023-05-21T05:59:50.635Z,100783.59
2023-05-21T06:02:18.541Z,100784.25
2023-05-21T06:04:46.527Z,100774.56
2023-05-21T06:07:14.435Z,100763.63
2023-05-21T06:09:42.427Z,100785.44
2023-05-21T06:12:14.548Z,100770.25
2023-05-21T06:14:46.103Z,100770.94
2023-05-21T06:17:14.229Z,100769.78
2023-05-21T06:19:42.330Z,100772.31
2023-05-21T06:22:11.568Z,100773.47
2023-05-21T06:24:40.221Z,100770.03
2023-05-21T06:27:10.609Z,100769.00
2023-05-21T06:29:38.933Z,100777.34
2023-05-21T06:32:08.626Z,100787.03
2023-05-21T06:34:36.934Z,100776.09
2023-05-21T06:37:05.678Z,100781.28
2023-05-21T06:39:33.929Z,100777.53
2023-05-21T06:42:02.185Z,100773.13
2023-05-21T06:44:30.597Z,100777.19
2023-05-21T06:46:59.033Z,100779.91
2023-05-21T06:49:27.297Z,100776.88
2023-05-21T06:51:55.575Z,100771.94
2023-05-21T06:54:24.937Z,100765.16
2023-05-21T06:56:54.946Z,100770.47
2023-05-21T06:59:23.285Z,100764.84
2023-05-21T07:01:51.590Z,100763.88
2023-05-21T07:04:19.522Z,100754.34
2023-05-21T07:06:48.870Z,100762.09
2023-05-21T07:09:18.570Z,100757.34
2023-05-21T07:11:49.548Z,100766.69
2023-05-21T07:14:17.778Z,100757.66
2023-05-21T07:16:46.321Z,100758.16
2023-05-21T07:19:15.808Z,100758.50
2023-05-21T07:21:44.155Z,100747.88
2023-05-21T07:24:12.262Z,100763.84
2023-05-21T07:26:40.935Z,100743.34
2023-05-21T07:29:09.068Z,100757.44
2023-05-21T07:31:37.239Z,100746.25
2023-05-21T07:34:05.468Z,100753.22
2023-05-21T07:36:34.067Z,100750.44
2023-05-21T07:39:02.221Z,100745.91
2023-05-21T07:41:30.953Z,100744.34
2023-05-21T07:43:59.346Z,100731.66
2023-05-21T07:46:27.905Z,100740.16
2023-05-21T07:48:56.055Z,100734.25
2023-05-21T07:51:24.319Z,100729.28
2023-05-21T07:53:55.002Z,100728.16
2023-05-21T07:56:24.076Z,100732.22
2023-05-21T07:58:52.519Z,100718.03
2023-05-21T08:01:20.378Z,100717.50
2023-05-21T08:03:48.809Z,100720.16
2023-05-21T08:06:17.088Z,100725.16
2023-05-21T08:08:45.235Z,100728.75
2023-05-21T08:11:13.609Z,100724.81
2023-05-21T08:13:41.669Z,100713.09
2023-05-21T08:16:10.020Z,100730.97
2023-05-21T08:18:38.078Z,100732.13
2023-05-21T08:21:06.895Z,100728.22
2023-05-21T08:23:35.707Z,100729.03
2023-05-21T08:26:04.086Z,100735.88
2023-05-21T08:28:32.300Z,100732.91
2023-05-21T08:31:00.164Z,100744.94
2023-05-21T08:33:28.569Z,100739.38
2023-05-21T08:35:57.240Z,100743.38
2023-05-21T08:38:26.094Z,100734.16
2023-05-21T08:40:55.710Z,100743.78
2023-05-21T08:43:25.196Z,100737.13
2023-05-21T08:45:55.703Z,100742.19
2023-05-21T08:48:25.073Z,100735.06
2023-05-21T08:50:54.966Z,100739.56
2023-05-21T08:53:28.642Z,100737.09
2023-05-21T08:55:57.901Z,100745.63
2023-05-21T08:58:26.595Z,100742.63
2023-05-21T09:00:56.633Z,100744.69
2023-05-21T09:03:25.073Z,100725.13
2023-05-21T09:05:54.144Z,100730.50
2023-05-21T09:08:27.555Z,100724.16
2023-05-21T09:10:55.546Z,100718.00
2023-05-21T09:13:25.899Z,100711.81
2023-05-21T09:15:56.419Z,100716.66
2023-05-21T09:18:28.053Z,100713.13
2023-05-21T09:20:57.239Z,100706.72
2023-05-21T09:23:29.179Z,100714.84
2023-05-21T09:25:58.266Z,100715.88
2023-05-21T09:28:26.844Z,100705.50
2023-05-21T09:30:55.362Z,100711.72
2023-05-21T09:33:28.006Z,100707.34
2023-05-21T09:35:56.473Z,100727.31
2023-05-21T09:38:26.141Z,100705.94
2023-05-21T09:40:57.989Z,100705.97
2023-05-21T09:43:26.375Z,100705.22
2023-05-21T09:45:58.325Z,100696.19
2023-05-21T09:48:37.024Z,100688.41
2023-05-21T09:51:19.465Z,100697.50
2023-05-21T09:54:00.537Z,100678.28
2023-05-21T09:56:32.329Z,100688.50
2023-05-21T09:59:06.291Z,100681.09
2023-05-21T10:01:35.566Z,100676.91
2023-05-21T10:04:07.966Z,100666.44
2023-05-21T10:06:43.534Z,100676.75
2023-05-21T10:09:12.363Z,100666.72
2023-05-21T10:11:40.596Z,100662.53
2023-05-21T10:14:10.619Z,100673.72
2023-05-21T10:16:39.347Z,100682.75
2023-05-21T10:19:11.373Z,100677.09
2023-05-21T10:21:40.802Z,100669.00
2023-05-21T10:24:12.731Z,100675.56
2023-05-21T10:26:42.118Z,100659.72
2023-05-21T10:29:10.964Z,100661.44
2023-05-21T10:31:40.661Z,100674.09
2023-05-21T10:34:09.239Z,100653.81
2023-05-21T10:36:41.473Z,100663.56
2023-05-21T10:39:13.092Z,100643.25
2023-05-21T10:41:58.429Z,100643.25
2023-05-21T10:44:59.744Z,100640.91
2023-05-21T10:47:43.634Z,100636.06
2023-05-21T10:50:42.029Z,100646.44
2023-05-21T10:53:31.710Z,100662.94
2023-05-21T10:55:59.874Z,100660.38
2023-05-21T10:59:01.327Z,100658.28
2023-05-21T11:01:34.355Z,100664.63
2023-05-21T11:04:08.073Z,100657.19
2023-05-21T11:06:37.978Z,100660.81
2023-05-21T11:09:14.129Z,100660.56
2023-05-21T11:11:45.300Z,100656.72
2023-05-21T11:14:36.413Z,100649.56
2023-05-21T11:17:16.562Z,100645.38
2023-05-21T11:19:48.997Z,100638.81
2023-05-21T11:22:26.000Z,100635.84
2023-05-21T11:24:56.879Z,100628.66
2023-05-21T11:27:41.903Z,100644.38
2023-05-21T11:30:16.340Z,100654.94
2023-05-21T11:33:14.361Z,100657.88
2023-05-21T11:35:46.100Z,100674.56
2023-05-21T11:38:14.961Z,100695.94
2023-05-21T11:40:56.204Z,100735.66
2023-05-21T11:43:25.847Z,100743.13
2023-05-21T11:45:55.371Z,100738.47
2023-05-21T11:48:28.498Z,100741.97
2023-05-21T11:50:58.963Z,100739.59
2023-05-21T11:53:30.437Z,100735.34
2023-05-21T11:56:00.117Z,100732.59
2023-05-21T11:58:31.907Z,100729.56
2023-05-21T12:00:59.857Z,100729.66
2023-05-21T12:03:30.966Z,100739.94
2023-05-21T12:06:07.438Z,100725.00
2023-05-21T12:08:39.009Z,100727.38
2023-05-21T12:11:10.153Z,100732.09
2023-05-21T12:13:40.030Z,100727.47
2023-05-21T12:16:08.795Z,100729.59
2023-05-21T12:18:38.228Z,100727.94
2023-05-21T12:21:07.682Z,100738.63
2023-05-21T12:23:37.642Z,100732.75
2023-05-21T12:26:06.388Z,100735.22
2023-05-21T12:28:35.099Z,100742.59
2023-05-21T12:31:03.508Z,100739.94
2023-05-21T12:33:37.902Z,100754.94
2023-05-21T12:36:06.528Z,100757.53
2023-05-21T12:38:34.945Z,100750.31
2023-05-21T12:41:06.662Z,100756.22
2023-05-21T12:43:35.741Z,100753.09
2023-05-21T12:46:06.244Z,100741.41
2023-05-21T12:48:36.536Z,100742.03
2023-05-21T12:51:06.780Z,100736.69
2023-05-21T12:53:41.964Z,100739.25
2023-05-21T12:56:14.094Z,100755.22
2023-05-21T12:58:50.359Z,100765.50
2023-05-21T13:01:18.774Z,100771.25
2023-05-21T13:03:47.072Z,100777.13
2023-05-21T13:06:15.813Z,100774.41
2023-05-21T13:08:48.035Z,100773.69
2023-05-21T13:11:16.835Z,100782.38
2023-05-21T13:13:46.194Z,100764.03
2023-05-21T13:16:14.612Z,100761.75
2023-05-21T13:18:43.822Z,100761.66
2023-05-21T13:21:12.621Z,100770.50
2023-05-21T13:23:41.468Z,100783.97
2023-05-21T13:26:11.021Z,100791.81
2023-05-21T13:28:42.378Z,100790.94
2023-05-21T13:31:12.526Z,100788.50
2023-05-21T13:33:41.099Z,100795.50
2023-05-21T13:36:09.624Z,100790.53
2023-05-21T13:38:39.586Z,100787.06
2023-05-21T13:41:08.508Z,100790.22
2023-05-21T13:43:37.702Z,100789.66
2023-05-21T13:46:06.401Z,100790.38
2023-05-21T13:48:35.237Z,100786.81
2023-05-21T13:51:03.484Z,100775.50
2023-05-21T13:53:32.869Z,100769.91
2023-05-21T13:56:01.652Z,100766.75
2023-05-21T13:58:35.075Z,100745.81
2023-05-21T14:01:04.190Z,100727.91
2023-05-21T14:03:32.500Z,100707.59
2023-05-21T14:06:00.913Z,100713.88
2023-05-21T14:08:29.979Z,100701.53
2023-05-21T14:10:58.589Z,100688.41
2023-05-21T14:13:28.079Z,100682.44
2023-05-21T14:15:56.361Z,100706.88
2023-05-21T14:18:27.437Z,100710.41
2023-05-21T14:20:55.895Z,100733.59
2023-05-21T14:23:24.906Z,100726.47
2023-05-21T14:25:53.717Z,100730.56
2023-05-21T14:28:22.144Z,100732.13
2023-05-21T14:30:50.470Z,100735.56
2023-05-21T14:33:18.866Z,100749.38
2023-05-21T14:35:48.332Z,100769.97
2023-05-21T14:38:16.679Z,100800.94
2023-05-21T14:40:44.760Z,100815.66
2023-05-21T14:43:13.822Z,100805.84
2023-05-21T14:45:42.135Z,100794.59
2023-05-21T14:48:12.286Z,100788.66
2023-05-21T14:50:40.898Z,100776.69
2023-05-21T14:53:11.494Z,100772.25
2023-05-21T14:55:40.267Z,100774.72
2023-05-21T14:58:09.060Z,100791.28
2023-05-21T15:00:37.992Z,100779.19
2023-05-21T15:03:07.005Z,100781.19
2023-05-21T15:05:36.441Z,100776.31
2023-05-21T15:08:06.599Z,100777.72
2023-05-21T15:10:36.001Z,100785.28
2023-05-21T15:13:04.460Z,100781.38
2023-05-21T15:15:32.795Z,100779.66
2023-05-21T15:18:01.229Z,100779.97
2023-05-21T15:20:30.523Z,100768.09
2023-05-21T15:25:33.542Z,100758.16
2023-05-21T15:28:02.559Z,100748.00
2023-05-21T15:30:31.100Z,100748.69
2023-05-21T15:32:59.493Z,100735.50
2023-05-21T15:35:27.998Z,100738.75
2023-05-21T15:37:56.622Z,100755.16
2023-05-21T15:40:27.044Z,100757.94
2023-05-21T15:42:55.425Z,100752.13
2023-05-21T15:45:25.263Z,100762.44
2023-05-21T15:47:53.528Z,100759.97
2023-05-21T15:50:45.413Z,100770.22
2023-05-21T15:53:14.024Z,100774.34
2023-05-21T15:55:45.279Z,100776.75
2023-05-21T15:58:14.051Z,100774.63
2023-05-21T16:00:42.965Z,100777.13
2023-05-21T16:03:14.813Z,100785.69
2023-05-21T16:05:43.152Z,100787.00
2023-05-21T16:08:12.689Z,100788.75
2023-05-21T16:10:41.384Z,100786.56
2023-05-21T16:13:10.504Z,100796.03
2023-05-21T16:15:39.940Z,100793.75
2023-05-21T16:18:10.245Z,100785.31
2023-05-21T16:20:39.535Z,100784.16
2023-05-21T16:23:07.552Z,100785.00
2023-05-21T16:25:36.663Z,100793.00
2023-05-21T16:28:05.734Z,100790.06
2023-05-21T16:30:34.280Z,100786.31
2023-05-21T16:33:03.008Z,100777.41
2023-05-21T16:35:32.390Z,100768.81
2023-05-21T16:38:00.507Z,100778.19
2023-05-21T16:40:28.919Z,100772.00
2023-05-21T16:42:58.063Z,100766.94
2023-05-21T16:45:26.851Z,100771.78
2023-05-21T16:47:55.037Z,100766.03
2023-05-21T16:50:23.616Z,100758.59
2023-05-21T16:52:51.910Z,100767.88
2023-05-21T16:55:20.868Z,100766.91
2023-05-21T16:57:49.303Z,100761.75
2023-05-21T17:00:18.262Z,100768.22
2023-05-21T17:02:47.240Z,100763.78
2023-05-21T17:05:16.074Z,100756.63
2023-05-21T17:07:45.408Z,100766.50
2023-05-21T17:10:17.660Z,100763.78
2023-05-21T17:12:46.676Z,100744.91
2023-05-21T17:15:19.898Z,100757.47
2023-05-21T17:17:48.545Z,100757.47
2023-05-21T17:20:16.844Z,100745.97
2023-05-21T17:22:45.611Z,100736.03
2023-05-21T17:25:13.944Z,100735.34
2023-05-21T17:27:42.518Z,100735.00
2023-05-21T17:30:11.764Z,100726.91
2023-05-21T17:32:40.152Z,100712.31
2023-05-21T17:35:09.444Z,100704.88
2023-05-21T17:37:38.280Z,100698.13
2023-05-21T17:40:07.522Z,100703.25
2023-05-21T17:42:35.584Z,100683.06
2023-05-21T17:45:05.526Z,100687.66
2023-05-21T17:47:34.994Z,100690.06
2023-05-21T17:50:03.957Z,100695.41
2023-05-21T17:52:32.700Z,100689.34
2023-05-21T17:55:01.841Z,100690.28
2023-05-21T17:57:30.662Z,100676.88
2023-05-21T18:00:00.427Z,100682.59
2023-05-21T18:02:29.589Z,100693.56
2023-05-21T18:04:57.972Z,100695.16
2023-05-21T18:07:26.264Z,100699.91
2023-05-21T18:09:55.367Z,100697.03
2023-05-21T18:12:23.596Z,100696.00
2023-05-21T18:14:52.520Z,100686.72
2023-05-21T18:17:22.132Z,100692.53
2023-05-21T18:19:52.472Z,100690.75
2023-05-21T18:22:21.019Z,100682.84
2023-05-21T18:24:49.804Z,100686.44
2023-05-21T18:27:18.981Z,100684.94
2023-05-21T18:29:52.799Z,100684.47
2023-05-21T18:32:21.521Z,100679.59
2023-05-21T18:34:50.089Z,100681.28
2023-05-21T18:37:19.177Z,100677.59
2023-05-21T18:39:48.433Z,100672.16
2023-05-21T18:42:17.077Z,100666.53
2023-05-21T18:44:48.953Z,100658.94
2023-05-21T18:47:17.622Z,100663.03
2023-05-21T18:49:45.892Z,100649.28
2023-05-21T18:52:16.378Z,100648.44
2023-05-21T18:54:44.443Z,100648.28
2023-05-21T18:57:14.008Z,100644.41
2023-05-21T18:59:42.213Z,100652.38
2023-05-21T19:02:11.064Z,100658.66
2023-05-21T19:04:39.924Z,100672.66
2023-05-21T19:07:11.308Z,100676.06
2023-05-21T19:09:39.401Z,100679.50
2023-05-21T19:12:07.944Z,100686.75
2023-05-21T19:14:36.924Z,100695.75
2023-05-21T19:17:09.351Z,100690.31
2023-05-21T19:19:38.457Z,100697.81
2023-05-21T19:22:07.692Z,100694.72
2023-05-21T19:24:36.393Z,100695.28
2023-05-21T19:27:04.993Z,100685.25
2023-05-21T19:29:33.072Z,100680.13
2023-05-21T19:32:01.503Z,100678.97
2023-05-21T19:34:30.229Z,100677.63
2023-05-21T19:37:01.472Z,100685.97
2023-05-21T19:39:44.993Z,100682.34
2023-05-21T19:42:19.553Z,100684.22
2023-05-21T19:44:51.573Z,100683.69
2023-05-21T19:47:20.002Z,100686.47
2023-05-21T19:49:52.440Z,100687.78
2023-05-21T19:52:24.221Z,100692.94
2023-05-21T19:54:52.921Z,100688.13
2023-05-21T19:57:23.388Z,100699.56
2023-05-21T19:59:53.860Z,100723.78
2023-05-21T20:02:29.044Z,100741.34
2023-05-21T20:04:59.259Z,100763.03
2023-05-21T20:07:29.667Z,100750.44
2023-05-21T20:10:02.909Z,100729.72
2023-05-21T20:12:36.086Z,100726.88
2023-05-21T20:15:07.449Z,100745.84
2023-05-21T20:17:41.632Z,100734.34
2023-05-21T20:20:14.366Z,100733.69
2023-05-21T20:22:43.782Z,100745.00
2023-05-21T20:25:12.561Z,100717.47
2023-05-21T20:27:41.713Z,100722.38
2023-05-21T20:30:10.587Z,100703.38
2023-05-21T20:32:43.039Z,100717.81
2023-05-21T20:35:11.829Z,100703.50
2023-05-21T20:37:40.323Z,100693.94
2023-05-21T20:40:09.579Z,100688.69
2023-05-21T20:42:38.842Z,100684.25
2023-05-21T20:45:08.217Z,100684.00
2023-05-21T20:47:36.776Z,100688.28
2023-05-21T20:50:06.457Z,100674.69
2023-05-21T20:52:35.243Z,100682.13
2023-05-21T20:55:05.041Z,100678.88
2023-05-21T20:57:33.812Z,100683.31
2023-05-21T21:00:03.200Z,100679.59
2023-05-21T21:02:33.033Z,100679.88
2023-05-21T21:05:03.008Z,100675.47
2023-05-21T21:07:34.500Z,100672.88
2023-05-21T21:10:03.623Z,100668.63
2023-05-21T21:12:32.679Z,100659.47
2023-05-21T21:15:01.061Z,100661.50
2023-05-21T21:17:29.687Z,100660.78
2023-05-21T21:19:57.874Z,100648.22
2023-05-21T21:22:27.299Z,100656.19
2023-05-21T21:24:55.354Z,100651.16
2023-05-21T21:27:24.422Z,100661.34
2023-05-21T21:29:55.168Z,100649.63
2023-05-21T21:32:26.925Z,100649.31
2023-05-21T21:34:55.302Z,100649.44
2023-05-21T21:37:23.474Z,100644.56
2023-05-21T21:39:52.848Z,100646.97
2023-05-21T21:42:21.412Z,100658.69
2023-05-21T21:44:49.428Z,100658.88
2023-05-21T21:47:17.813Z,100650.25
2023-05-21T21:49:46.186Z,100649.53
2023-05-21T21:52:15.065Z,100653.81
2023-05-21T21:54:43.022Z,100654.84
2023-05-21T21:57:11.268Z,100659.81
2023-05-21T21:59:40.104Z,100659.09
2023-05-21T22:02:08.579Z,100656.38
2023-05-21T22:04:37.181Z,100652.50
2023-05-21T22:07:06.716Z,100648.38
2023-05-21T22:09:35.303Z,100654.66
2023-05-21T22:12:08.073Z,100646.22
2023-05-21T22:14:36.064Z,100646.22
2023-05-21T22:17:04.799Z,100642.63
2023-05-21T22:19:35.597Z,100636.31
2023-05-21T22:22:15.182Z,100628.16
2023-05-21T22:24:43.346Z,100639.38
2023-05-21T22:27:11.520Z,100632.06
2023-05-21T22:29:40.434Z,100631.06
2023-05-21T22:32:08.840Z,100626.16
2023-05-21T22:34:37.005Z,100631.31
2023-05-21T22:37:05.399Z,100629.75
2023-05-21T22:39:34.880Z,100636.75
2023-05-21T22:42:04.164Z,100633.13
2023-05-21T22:44:32.992Z,100626.84
2023-05-21T22:47:01.633Z,100620.88
2023-05-21T22:49:32.988Z,100626.94
2023-05-21T22:52:05.596Z,100623.00
2023-05-21T22:54:33.765Z,100626.88
2023-05-21T22:57:02.687Z,100615.31
2023-05-21T22:59:31.801Z,100610.34
2023-05-21T23:02:00.031Z,100616.63
2023-05-21T23:04:43.338Z,100607.94
2023-05-21T23:07:12.875Z,100615.38
2023-05-21T23:09:41.591Z,100613.88
2023-05-21T23:12:10.481Z,100623.75
2023-05-21T23:14:39.675Z,100617.41
2023-05-21T23:17:08.505Z,100621.34
2023-05-21T23:19:37.913Z,100621.66
2023-05-21T23:22:06.585Z,100620.09
2023-05-21T23:24:38.910Z,100620.25
2023-05-21T23:27:09.078Z,100622.28
2023-05-21T23:29:37.408Z,100623.59
2023-05-21T23:32:07.144Z,100623.72
2023-05-21T23:34:35.839Z,100628.72
2023-05-21T23:37:04.635Z,100621.75
2023-05-21T23:39:37.249Z,100612.59
2023-05-21T23:42:07.373Z,100617.94
2023-05-21T23:44:36.329Z,100614.94
2023-05-21T23:47:05.071Z,100612.97
2023-05-21T23:49:33.924Z,100605.50
2023-05-21T23:52:05.571Z,100609.22
2023-05-21T23:54:34.785Z,100608.22
2023-05-21T23:57:03.283Z,100604.41
2023-05-21T23:59:31.536Z,100604.25
